Airfield :
LOGIN :

Register | Disclaimer

   EN    FR    IT 

 










Legend :    VFR   Marginal VFR   IFR   Intensive IFR   Very Intensive IFR
Visi :
Ceiling :
>= 8 km
>= 3000ft
5 to 8 km
1000 to 3000 ft
1500m to 5 km
500 to 1000 ft
800 to 1500m
200 to 500 ft
< 800m
< 200 ft
Symbols :   Thunderstorms  Fog  Heavy snow  Heavy precipitations  Wind > 20 kt
SIGMETs :     Misc.  Thunderstorms  Icing  Turbulence  Mountain Waves  Volcanic Ashes







- Airport Elevation : 580 ft
- Download approach charts


LFOA - Avord

CURRENT METAR :
  • 181500Z AUTO 12010KT CAVOK 08/03 Q1014 NOSIG

EXPIRED METARs :
  • 181430Z AUTO 13011KT CAVOK 08/02 Q1014 NOSIG
  • 181400Z AUTO 14011KT CAVOK 08/02 Q1014 NOSIG
  • 181330Z AUTO 14010KT CAVOK 08/02 Q1015 NOSIG
  • 181300Z AUTO 14012KT CAVOK 08/01 Q1015 NOSIG
  • 181230Z AUTO 14008KT 110V170 CAVOK 07/02 Q1016 NOSIG

TAF TAF LFOA
Valid from the 18 at 15:00 until the 19 at 15:00 UTC


181400Z 1815/1915 14010KT CAVOK
TEMPO 1815/1818 14010G20KT
BECMG 1821/1823 22015G25KT 4000 -RA BKN040
BECMG 1900/1902 21010KT 8000 NSW
PROB40
TEMPO 1902/1909 4000 -RA BKN012 BKN030
TEMPO 1910/1915 25015G25KT 4000 SHRA BKN015 BKN030CB
No reported NOTAMs for that airfield.



MET'MAP, your aeronautical weather chart ! - Copyright ORBIFLY December 2007 - Disclaimer

ORBIFLY MET'MAP TEAM :

Programming & Development : Alexandra Zaïnal
Concept & Development : Baudouin d'Aumeries
Co-Development & Prog : Marc-Olivier Méhu
Technical & hardware support : Manuel Goepfert

Contact : metmap@orbifly.com




SOURCES & CREDITS :

   NOAA